sensor_id;sensor_type;location;lat;lon;timestamp;P1;durP1;ratioP1;P2;durP2;ratioP2
62796;SDS011;48839;48.546;-4.178;2024-01-11T00:01:50;17.63;;;8.60;;
62796;SDS011;48839;48.546;-4.178;2024-01-11T00:04:16;23.95;;;11.38;;
62796;SDS011;48839;48.546;-4.178;2024-01-11T00:06:43;19.88;;;9.30;;
62796;SDS011;48839;48.546;-4.178;2024-01-11T00:09:09;17.20;;;9.73;;
62796;SDS011;48839;48.546;-4.178;2024-01-11T00:11:36;21.80;;;10.77;;
62796;SDS011;48839;48.546;-4.178;2024-01-11T00:14:02;19.15;;;10.68;;
62796;SDS011;48839;48.546;-4.178;2024-01-11T00:16:28;21.17;;;10.82;;
62796;SDS011;48839;48.546;-4.178;2024-01-11T00:18:55;21.23;;;11.18;;
62796;SDS011;48839;48.546;-4.178;2024-01-11T00:21:21;24.00;;;11.45;;
62796;SDS011;48839;48.546;-4.178;2024-01-11T00:23:48;26.90;;;12.95;;
62796;SDS011;48839;48.546;-4.178;2024-01-11T00:26:14;26.40;;;12.48;;
62796;SDS011;48839;48.546;-4.178;2024-01-11T00:28:40;26.02;;;11.93;;
62796;SDS011;48839;48.546;-4.178;2024-01-11T00:31:07;22.35;;;12.13;;
62796;SDS011;48839;48.546;-4.178;2024-01-11T00:33:33;28.73;;;12.68;;
62796;SDS011;48839;48.546;-4.178;2024-01-11T00:35:59;28.23;;;12.25;;
62796;SDS011;48839;48.546;-4.178;2024-01-11T00:38:25;28.33;;;13.38;;
62796;SDS011;48839;48.546;-4.178;2024-01-11T00:40:51;28.88;;;12.63;;
62796;SDS011;48839;48.546;-4.178;2024-01-11T00:43:18;26.90;;;13.15;;
62796;SDS011;48839;48.546;-4.178;2024-01-11T00:45:45;24.90;;;13.07;;
62796;SDS011;48839;48.546;-4.178;2024-01-11T00:48:11;18.40;;;9.57;;
62796;SDS011;48839;48.546;-4.178;2024-01-11T00:50:38;28.25;;;14.88;;
62796;SDS011;48839;48.546;-4.178;2024-01-11T00:53:04;28.70;;;14.10;;
62796;SDS011;48839;48.546;-4.178;2024-01-11T00:55:30;24.90;;;11.95;;
62796;SDS011;48839;48.546;-4.178;2024-01-11T00:57:56;28.17;;;14.38;;
62796;SDS011;48839;48.546;-4.178;2024-01-11T01:00:22;29.83;;;13.57;;
62796;SDS011;48839;48.546;-4.178;2024-01-11T01:02:49;27.83;;;14.00;;
62796;SDS011;48839;48.546;-4.178;2024-01-11T01:05:15;27.33;;;14.60;;
62796;SDS011;48839;48.546;-4.178;2024-01-11T01:07:41;30.63;;;14.85;;
62796;SDS011;48839;48.546;-4.178;2024-01-11T01:10:07;26.90;;;13.45;;
62796;SDS011;48839;48.546;-4.178;2024-01-11T01:12:34;30.95;;;14.63;;
62796;SDS011;48839;48.546;-4.178;2024-01-11T01:15:00;25.38;;;12.25;;
62796;SDS011;48839;48.546;-4.178;2024-01-11T01:17:26;26.88;;;13.23;;
62796;SDS011;48839;48.546;-4.178;2024-01-11T01:19:52;25.55;;;13.05;;
62796;SDS011;48839;48.546;-4.178;2024-01-11T01:22:19;26.48;;;13.70;;
62796;SDS011;48839;48.546;-4.178;2024-01-11T01:24:45;26.60;;;13.63;;
62796;SDS011;48839;48.546;-4.178;2024-01-11T01:27:11;23.75;;;12.77;;
62796;SDS011;48839;48.546;-4.178;2024-01-11T01:29:37;28.98;;;14.38;;
62796;SDS011;48839;48.546;-4.178;2024-01-11T01:32:04;26.63;;;12.75;;
62796;SDS011;48839;48.546;-4.178;2024-01-11T01:34:30;29.00;;;13.50;;
62796;SDS011;48839;48.546;-4.178;2024-01-11T01:36:56;31.17;;;15.20;;
62796;SDS011;48839;48.546;-4.178;2024-01-11T01:39:23;25.70;;;13.73;;
62796;SDS011;48839;48.546;-4.178;2024-01-11T01:41:49;24.95;;;12.13;;
62796;SDS011;48839;48.546;-4.178;2024-01-11T01:44:15;31.38;;;12.80;;
62796;SDS011;48839;48.546;-4.178;2024-01-11T01:46:41;23.92;;;11.48;;
62796;SDS011;48839;48.546;-4.178;2024-01-11T01:49:07;25.33;;;12.88;;
62796;SDS011;48839;48.546;-4.178;2024-01-11T01:51:33;29.38;;;13.95;;
62796;SDS011;48839;48.546;-4.178;2024-01-11T01:54:00;24.35;;;10.55;;
62796;SDS011;48839;48.546;-4.178;2024-01-11T01:56:27;23.70;;;12.70;;
62796;SDS011;48839;48.546;-4.178;2024-01-11T01:58:53;31.52;;;12.95;;
62796;SDS011;48839;48.546;-4.178;2024-01-11T02:01:20;24.77;;;11.77;;
62796;SDS011;48839;48.546;-4.178;2024-01-11T02:03:48;21.00;;;10.82;;
62796;SDS011;48839;48.546;-4.178;2024-01-11T02:06:16;25.17;;;12.45;;
62796;SDS011;48839;48.546;-4.178;2024-01-11T02:08:42;23.85;;;11.82;;
62796;SDS011;48839;48.546;-4.178;2024-01-11T02:11:09;26.77;;;13.60;;
62796;SDS011;48839;48.546;-4.178;2024-01-11T02:13:37;24.05;;;12.50;;
62796;SDS011;48839;48.546;-4.178;2024-01-11T02:16:03;30.92;;;14.15;;
62796;SDS011;48839;48.546;-4.178;2024-01-11T02:18:29;20.95;;;11.65;;
62796;SDS011;48839;48.546;-4.178;2024-01-11T02:20:56;26.85;;;12.82;;
62796;SDS011;48839;48.546;-4.178;2024-01-11T02:23:24;25.55;;;13.02;;
62796;SDS011;48839;48.546;-4.178;2024-01-11T02:25:50;21.17;;;11.43;;
62796;SDS011;48839;48.546;-4.178;2024-01-11T02:28:17;22.15;;;12.35;;
62796;SDS011;48839;48.546;-4.178;2024-01-11T02:30:43;25.67;;;12.45;;
62796;SDS011;48839;48.546;-4.178;2024-01-11T02:33:09;23.92;;;11.60;;
62796;SDS011;48839;48.546;-4.178;2024-01-11T02:35:36;26.80;;;12.68;;
62796;SDS011;48839;48.546;-4.178;2024-01-11T02:38:04;23.08;;;12.32;;
62796;SDS011;48839;48.546;-4.178;2024-01-11T02:40:31;27.50;;;12.52;;
62796;SDS011;48839;48.546;-4.178;2024-01-11T02:42:57;28.67;;;13.02;;
62796;SDS011;48839;48.546;-4.178;2024-01-11T02:45:24;15.82;;;9.55;;
62796;SDS011;48839;48.546;-4.178;2024-01-11T02:47:50;22.92;;;12.15;;
62796;SDS011;48839;48.546;-4.178;2024-01-11T02:50:16;20.83;;;11.55;;
62796;SDS011;48839;48.546;-4.178;2024-01-11T02:52:42;20.00;;;10.93;;
62796;SDS011;48839;48.546;-4.178;2024-01-11T02:55:09;28.48;;;12.13;;
62796;SDS011;48839;48.546;-4.178;2024-01-11T02:57:35;24.63;;;11.98;;
62796;SDS011;48839;48.546;-4.178;2024-01-11T03:00:01;24.73;;;12.50;;
62796;SDS011;48839;48.546;-4.178;2024-01-11T03:02:27;30.33;;;12.88;;
62796;SDS011;48839;48.546;-4.178;2024-01-11T03:04:53;26.23;;;11.73;;
62796;SDS011;48839;48.546;-4.178;2024-01-11T03:07:20;24.20;;;12.57;;
62796;SDS011;48839;48.546;-4.178;2024-01-11T03:09:46;25.98;;;13.32;;
62796;SDS011;48839;48.546;-4.178;2024-01-11T03:12:12;22.63;;;11.80;;
62796;SDS011;48839;48.546;-4.178;2024-01-11T03:14:38;28.38;;;10.88;;
62796;SDS011;48839;48.546;-4.178;2024-01-11T03:17:05;26.40;;;13.27;;
62796;SDS011;48839;48.546;-4.178;2024-01-11T03:19:31;26.05;;;12.23;;
62796;SDS011;48839;48.546;-4.178;2024-01-11T03:21:57;27.38;;;14.18;;
62796;SDS011;48839;48.546;-4.178;2024-01-11T03:24:27;25.20;;;12.98;;
62796;SDS011;48839;48.546;-4.178;2024-01-11T03:26:53;31.20;;;12.63;;
62796;SDS011;48839;48.546;-4.178;2024-01-11T03:29:19;24.15;;;12.35;;
62796;SDS011;48839;48.546;-4.178;2024-01-11T03:31:46;26.75;;;11.55;;
62796;SDS011;48839;48.546;-4.178;2024-01-11T03:34:12;22.02;;;12.60;;
62796;SDS011;48839;48.546;-4.178;2024-01-11T03:36:38;28.75;;;13.63;;
62796;SDS011;48839;48.546;-4.178;2024-01-11T03:39:05;20.10;;;11.77;;
62796;SDS011;48839;48.546;-4.178;2024-01-11T03:41:31;28.17;;;14.65;;
62796;SDS011;48839;48.546;-4.178;2024-01-11T03:43:57;25.15;;;12.45;;
62796;SDS011;48839;48.546;-4.178;2024-01-11T03:46:23;26.77;;;13.20;;
62796;SDS011;48839;48.546;-4.178;2024-01-11T03:48:50;26.70;;;12.05;;
62796;SDS011;48839;48.546;-4.178;2024-01-11T03:51:16;28.50;;;13.77;;
62796;SDS011;48839;48.546;-4.178;2024-01-11T03:53:42;28.80;;;13.35;;
62796;SDS011;48839;48.546;-4.178;2024-01-11T03:56:08;27.30;;;14.55;;
62796;SDS011;48839;48.546;-4.178;2024-01-11T03:58:35;28.60;;;14.15;;
62796;SDS011;48839;48.546;-4.178;2024-01-11T04:01:04;24.80;;;14.65;;
62796;SDS011;48839;48.546;-4.178;2024-01-11T04:03:32;22.80;;;12.00;;
62796;SDS011;48839;48.546;-4.178;2024-01-11T04:05:58;25.55;;;14.25;;
62796;SDS011;48839;48.546;-4.178;2024-01-11T04:08:24;27.67;;;12.80;;
62796;SDS011;48839;48.546;-4.178;2024-01-11T04:10:51;33.83;;;14.77;;
62796;SDS011;48839;48.546;-4.178;2024-01-11T04:13:17;30.67;;;15.18;;
62796;SDS011;48839;48.546;-4.178;2024-01-11T04:15:43;31.60;;;13.43;;
62796;SDS011;48839;48.546;-4.178;2024-01-11T04:18:09;25.92;;;13.35;;
62796;SDS011;48839;48.546;-4.178;2024-01-11T04:20:35;27.60;;;12.45;;
62796;SDS011;48839;48.546;-4.178;2024-01-11T04:23:02;26.20;;;12.50;;
62796;SDS011;48839;48.546;-4.178;2024-01-11T04:25:28;24.55;;;12.48;;
62796;SDS011;48839;48.546;-4.178;2024-01-11T04:27:54;23.60;;;12.40;;
62796;SDS011;48839;48.546;-4.178;2024-01-11T04:30:20;23.95;;;12.98;;
62796;SDS011;48839;48.546;-4.178;2024-01-11T04:32:46;28.13;;;13.15;;
62796;SDS011;48839;48.546;-4.178;2024-01-11T04:35:13;20.23;;;11.68;;
62796;SDS011;48839;48.546;-4.178;2024-01-11T04:37:39;30.27;;;14.30;;
62796;SDS011;48839;48.546;-4.178;2024-01-11T04:40:06;27.58;;;12.15;;
62796;SDS011;48839;48.546;-4.178;2024-01-11T04:42:33;25.00;;;13.15;;
62796;SDS011;48839;48.546;-4.178;2024-01-11T04:44:59;25.17;;;11.98;;
62796;SDS011;48839;48.546;-4.178;2024-01-11T04:47:25;28.30;;;14.20;;
62796;SDS011;48839;48.546;-4.178;2024-01-11T04:49:51;21.38;;;11.50;;
62796;SDS011;48839;48.546;-4.178;2024-01-11T04:52:17;21.63;;;11.13;;
62796;SDS011;48839;48.546;-4.178;2024-01-11T04:54:44;23.63;;;10.73;;
62796;SDS011;48839;48.546;-4.178;2024-01-11T04:57:10;23.75;;;11.77;;
62796;SDS011;48839;48.546;-4.178;2024-01-11T04:59:36;24.85;;;10.73;;
62796;SDS011;48839;48.546;-4.178;2024-01-11T05:02:02;19.05;;;10.02;;
62796;SDS011;48839;48.546;-4.178;2024-01-11T05:04:29;21.10;;;12.23;;
62796;SDS011;48839;48.546;-4.178;2024-01-11T05:06:55;25.67;;;13.02;;
62796;SDS011;48839;48.546;-4.178;2024-01-11T05:09:21;23.48;;;11.85;;
62796;SDS011;48839;48.546;-4.178;2024-01-11T05:11:48;25.30;;;12.55;;
62796;SDS011;48839;48.546;-4.178;2024-01-11T05:14:14;16.77;;;10.52;;
62796;SDS011;48839;48.546;-4.178;2024-01-11T05:16:40;23.05;;;11.75;;
62796;SDS011;48839;48.546;-4.178;2024-01-11T05:19:06;18.13;;;9.48;;
62796;SDS011;48839;48.546;-4.178;2024-01-11T05:21:32;23.83;;;9.80;;
62796;SDS011;48839;48.546;-4.178;2024-01-11T05:23:59;18.05;;;9.25;;
62796;SDS011;48839;48.546;-4.178;2024-01-11T05:26:25;22.25;;;10.65;;
62796;SDS011;48839;48.546;-4.178;2024-01-11T05:28:52;22.13;;;10.88;;
62796;SDS011;48839;48.546;-4.178;2024-01-11T05:31:18;27.77;;;11.82;;
62796;SDS011;48839;48.546;-4.178;2024-01-11T05:33:44;20.90;;;8.73;;
62796;SDS011;48839;48.546;-4.178;2024-01-11T05:36:11;22.65;;;10.85;;
62796;SDS011;48839;48.546;-4.178;2024-01-11T05:38:38;21.40;;;11.05;;
62796;SDS011;48839;48.546;-4.178;2024-01-11T05:41:05;28.25;;;13.27;;
62796;SDS011;48839;48.546;-4.178;2024-01-11T05:43:31;23.52;;;11.93;;
62796;SDS011;48839;48.546;-4.178;2024-01-11T05:45:57;23.17;;;9.88;;
62796;SDS011;48839;48.546;-4.178;2024-01-11T05:48:23;24.60;;;12.27;;
62796;SDS011;48839;48.546;-4.178;2024-01-11T05:50:50;17.60;;;8.88;;
62796;SDS011;48839;48.546;-4.178;2024-01-11T05:53:16;21.08;;;11.68;;
62796;SDS011;48839;48.546;-4.178;2024-01-11T05:55:45;22.23;;;10.88;;
62796;SDS011;48839;48.546;-4.178;2024-01-11T05:58:12;28.05;;;12.07;;
62796;SDS011;48839;48.546;-4.178;2024-01-11T06:00:38;24.50;;;11.13;;
62796;SDS011;48839;48.546;-4.178;2024-01-11T06:03:05;22.27;;;12.52;;
62796;SDS011;48839;48.546;-4.178;2024-01-11T06:05:31;23.30;;;11.90;;
62796;SDS011;48839;48.546;-4.178;2024-01-11T06:07:58;20.42;;;11.25;;
62796;SDS011;48839;48.546;-4.178;2024-01-11T06:10:24;17.70;;;10.40;;
62796;SDS011;48839;48.546;-4.178;2024-01-11T06:12:50;21.42;;;10.70;;
62796;SDS011;48839;48.546;-4.178;2024-01-11T06:15:16;24.23;;;11.85;;
62796;SDS011;48839;48.546;-4.178;2024-01-11T06:17:42;23.13;;;11.38;;
62796;SDS011;48839;48.546;-4.178;2024-01-11T06:20:09;27.83;;;12.38;;
62796;SDS011;48839;48.546;-4.178;2024-01-11T06:22:35;23.98;;;11.30;;
62796;SDS011;48839;48.546;-4.178;2024-01-11T06:25:02;17.30;;;10.23;;
62796;SDS011;48839;48.546;-4.178;2024-01-11T06:27:29;21.80;;;10.82;;
62796;SDS011;48839;48.546;-4.178;2024-01-11T06:29:55;23.73;;;11.95;;
62796;SDS011;48839;48.546;-4.178;2024-01-11T06:32:21;25.98;;;12.23;;
62796;SDS011;48839;48.546;-4.178;2024-01-11T06:34:47;23.98;;;11.85;;
62796;SDS011;48839;48.546;-4.178;2024-01-11T06:37:14;20.25;;;11.18;;
62796;SDS011;48839;48.546;-4.178;2024-01-11T06:39:40;23.52;;;11.40;;
62796;SDS011;48839;48.546;-4.178;2024-01-11T06:42:06;26.00;;;12.30;;
62796;SDS011;48839;48.546;-4.178;2024-01-11T06:44:33;20.77;;;10.95;;
62796;SDS011;48839;48.546;-4.178;2024-01-11T06:46:59;22.88;;;10.82;;
62796;SDS011;48839;48.546;-4.178;2024-01-11T06:49:26;19.65;;;10.23;;
62796;SDS011;48839;48.546;-4.178;2024-01-11T06:51:53;21.90;;;9.75;;
62796;SDS011;48839;48.546;-4.178;2024-01-11T06:54:19;24.50;;;10.30;;
62796;SDS011;48839;48.546;-4.178;2024-01-11T06:56:45;17.65;;;9.60;;
62796;SDS011;48839;48.546;-4.178;2024-01-11T06:59:11;18.65;;;9.00;;
62796;SDS011;48839;48.546;-4.178;2024-01-11T07:01:38;22.67;;;11.27;;
62796;SDS011;48839;48.546;-4.178;2024-01-11T07:04:04;23.50;;;10.02;;
62796;SDS011;48839;48.546;-4.178;2024-01-11T07:06:30;20.92;;;9.57;;
62796;SDS011;48839;48.546;-4.178;2024-01-11T07:08:56;20.60;;;10.32;;
62796;SDS011;48839;48.546;-4.178;2024-01-11T07:11:23;19.35;;;9.25;;
62796;SDS011;48839;48.546;-4.178;2024-01-11T07:13:49;17.27;;;10.10;;
62796;SDS011;48839;48.546;-4.178;2024-01-11T07:16:15;20.25;;;10.27;;
62796;SDS011;48839;48.546;-4.178;2024-01-11T07:18:42;20.95;;;11.30;;
62796;SDS011;48839;48.546;-4.178;2024-01-11T07:21:08;20.63;;;10.07;;
62796;SDS011;48839;48.546;-4.178;2024-01-11T07:23:34;17.55;;;9.82;;
62796;SDS011;48839;48.546;-4.178;2024-01-11T07:26:00;18.08;;;9.30;;
62796;SDS011;48839;48.546;-4.178;2024-01-11T07:28:26;20.58;;;9.90;;
62796;SDS011;48839;48.546;-4.178;2024-01-11T07:30:53;14.80;;;11.18;;
62796;SDS011;48839;48.546;-4.178;2024-01-11T07:33:19;20.80;;;10.18;;
62796;SDS011;48839;48.546;-4.178;2024-01-11T07:35:46;22.05;;;9.85;;
62796;SDS011;48839;48.546;-4.178;2024-01-11T07:38:12;19.80;;;8.75;;
62796;SDS011;48839;48.546;-4.178;2024-01-11T07:40:39;18.42;;;10.65;;
62796;SDS011;48839;48.546;-4.178;2024-01-11T07:43:05;16.77;;;9.50;;
62796;SDS011;48839;48.546;-4.178;2024-01-11T07:45:31;22.73;;;11.05;;
62796;SDS011;48839;48.546;-4.178;2024-01-11T07:47:57;18.92;;;9.52;;
62796;SDS011;48839;48.546;-4.178;2024-01-11T07:50:24;22.35;;;10.93;;
62796;SDS011;48839;48.546;-4.178;2024-01-11T07:52:51;21.80;;;12.15;;
62796;SDS011;48839;48.546;-4.178;2024-01-11T07:55:17;20.15;;;10.80;;
62796;SDS011;48839;48.546;-4.178;2024-01-11T07:57:48;22.55;;;10.80;;
62796;SDS011;48839;48.546;-4.178;2024-01-11T08:00:15;22.15;;;10.95;;
62796;SDS011;48839;48.546;-4.178;2024-01-11T08:02:41;20.50;;;9.85;;
62796;SDS011;48839;48.546;-4.178;2024-01-11T08:05:08;17.88;;;9.88;;
62796;SDS011;48839;48.546;-4.178;2024-01-11T08:07:35;25.42;;;10.73;;
62796;SDS011;48839;48.546;-4.178;2024-01-11T08:10:01;17.58;;;10.73;;
62796;SDS011;48839;48.546;-4.178;2024-01-11T08:12:29;18.25;;;9.68;;
62796;SDS011;48839;48.546;-4.178;2024-01-11T08:14:55;19.05;;;10.90;;
62796;SDS011;48839;48.546;-4.178;2024-01-11T08:17:21;17.88;;;9.63;;
62796;SDS011;48839;48.546;-4.178;2024-01-11T08:19:48;22.75;;;11.93;;
62796;SDS011;48839;48.546;-4.178;2024-01-11T08:22:14;20.67;;;10.50;;
62796;SDS011;48839;48.546;-4.178;2024-01-11T08:24:40;18.17;;;9.15;;
62796;SDS011;48839;48.546;-4.178;2024-01-11T08:27:07;18.77;;;9.77;;
62796;SDS011;48839;48.546;-4.178;2024-01-11T08:29:33;18.90;;;9.38;;
62796;SDS011;48839;48.546;-4.178;2024-01-11T08:31:59;19.38;;;11.02;;
62796;SDS011;48839;48.546;-4.178;2024-01-11T08:34:29;15.88;;;9.18;;
62796;SDS011;48839;48.546;-4.178;2024-01-11T08:36:55;18.85;;;8.77;;
62796;SDS011;48839;48.546;-4.178;2024-01-11T08:39:21;23.40;;;10.75;;
62796;SDS011;48839;48.546;-4.178;2024-01-11T08:41:48;22.38;;;10.65;;
62796;SDS011;48839;48.546;-4.178;2024-01-11T08:44:14;16.60;;;9.85;;
62796;SDS011;48839;48.546;-4.178;2024-01-11T08:46:40;19.90;;;9.63;;
62796;SDS011;48839;48.546;-4.178;2024-01-11T08:49:06;22.83;;;9.88;;
62796;SDS011;48839;48.546;-4.178;2024-01-11T08:51:33;17.92;;;9.52;;
62796;SDS011;48839;48.546;-4.178;2024-01-11T08:53:59;14.40;;;8.85;;
62796;SDS011;48839;48.546;-4.178;2024-01-11T08:56:25;19.35;;;10.18;;
62796;SDS011;48839;48.546;-4.178;2024-01-11T08:58:53;16.23;;;7.85;;
62796;SDS011;48839;48.546;-4.178;2024-01-11T09:01:19;22.95;;;10.63;;
62796;SDS011;48839;48.546;-4.178;2024-01-11T09:03:45;18.35;;;10.95;;
62796;SDS011;48839;48.546;-4.178;2024-01-11T09:06:13;22.10;;;10.20;;
62796;SDS011;48839;48.546;-4.178;2024-01-11T09:08:39;22.33;;;10.20;;
62796;SDS011;48839;48.546;-4.178;2024-01-11T09:11:08;18.67;;;10.38;;
62796;SDS011;48839;48.546;-4.178;2024-01-11T09:13:37;18.35;;;8.35;;
62796;SDS011;48839;48.546;-4.178;2024-01-11T09:16:05;22.02;;;9.80;;
62796;SDS011;48839;48.546;-4.178;2024-01-11T09:18:32;16.58;;;9.63;;
62796;SDS011;48839;48.546;-4.178;2024-01-11T09:20:58;15.82;;;9.35;;
62796;SDS011;48839;48.546;-4.178;2024-01-11T09:23:24;21.10;;;9.75;;
62796;SDS011;48839;48.546;-4.178;2024-01-11T09:25:50;17.77;;;8.82;;
62796;SDS011;48839;48.546;-4.178;2024-01-11T09:28:16;16.00;;;9.05;;
62796;SDS011;48839;48.546;-4.178;2024-01-11T09:30:42;22.25;;;12.23;;
62796;SDS011;48839;48.546;-4.178;2024-01-11T09:33:09;17.38;;;8.32;;
62796;SDS011;48839;48.546;-4.178;2024-01-11T09:35:35;18.13;;;10.27;;
62796;SDS011;48839;48.546;-4.178;2024-01-11T09:38:01;17.17;;;10.38;;
62796;SDS011;48839;48.546;-4.178;2024-01-11T09:40:27;21.08;;;9.80;;
62796;SDS011;48839;48.546;-4.178;2024-01-11T09:42:54;19.38;;;9.48;;
62796;SDS011;48839;48.546;-4.178;2024-01-11T09:45:20;24.88;;;9.68;;
62796;SDS011;48839;48.546;-4.178;2024-01-11T09:47:46;18.45;;;9.80;;
62796;SDS011;48839;48.546;-4.178;2024-01-11T09:50:14;30.88;;;9.82;;
62796;SDS011;48839;48.546;-4.178;2024-01-11T09:52:51;15.77;;;9.70;;
62796;SDS011;48839;48.546;-4.178;2024-01-11T09:55:18;20.33;;;8.95;;
62796;SDS011;48839;48.546;-4.178;2024-01-11T09:57:44;20.00;;;9.43;;
62796;SDS011;48839;48.546;-4.178;2024-01-11T10:00:16;17.17;;;9.10;;
62796;SDS011;48839;48.546;-4.178;2024-01-11T10:02:44;17.25;;;8.80;;
62796;SDS011;48839;48.546;-4.178;2024-01-11T10:05:11;16.88;;;8.75;;
62796;SDS011;48839;48.546;-4.178;2024-01-11T10:07:39;15.50;;;7.82;;
62796;SDS011;48839;48.546;-4.178;2024-01-11T10:10:06;16.00;;;9.25;;
62796;SDS011;48839;48.546;-4.178;2024-01-11T10:12:35;18.27;;;8.95;;
62796;SDS011;48839;48.546;-4.178;2024-01-11T10:15:05;16.27;;;8.70;;
62796;SDS011;48839;48.546;-4.178;2024-01-11T10:17:34;19.08;;;9.23;;
62796;SDS011;48839;48.546;-4.178;2024-01-11T10:20:01;17.60;;;9.13;;
62796;SDS011;48839;48.546;-4.178;2024-01-11T10:22:28;14.80;;;9.32;;
62796;SDS011;48839;48.546;-4.178;2024-01-11T10:25:13;22.10;;;9.10;;
62796;SDS011;48839;48.546;-4.178;2024-01-11T10:27:39;15.48;;;8.30;;
62796;SDS011;48839;48.546;-4.178;2024-01-11T10:30:11;15.48;;;8.52;;
62796;SDS011;48839;48.546;-4.178;2024-01-11T10:32:38;15.27;;;8.95;;
62796;SDS011;48839;48.546;-4.178;2024-01-11T10:35:05;16.23;;;8.18;;
62796;SDS011;48839;48.546;-4.178;2024-01-11T10:37:31;12.73;;;7.72;;
62796;SDS011;48839;48.546;-4.178;2024-01-11T10:39:59;21.23;;;9.13;;
62796;SDS011;48839;48.546;-4.178;2024-01-11T10:42:29;13.75;;;7.60;;
62796;SDS011;48839;48.546;-4.178;2024-01-11T10:44:57;15.80;;;8.40;;
62796;SDS011;48839;48.546;-4.178;2024-01-11T10:47:24;17.35;;;8.45;;
62796;SDS011;48839;48.546;-4.178;2024-01-11T10:49:56;17.00;;;8.30;;
62796;SDS011;48839;48.546;-4.178;2024-01-11T10:52:26;16.38;;;8.18;;
62796;SDS011;48839;48.546;-4.178;2024-01-11T10:54:54;15.27;;;7.88;;
62796;SDS011;48839;48.546;-4.178;2024-01-11T10:57:21;12.90;;;6.60;;
62796;SDS011;48839;48.546;-4.178;2024-01-11T10:59:48;14.43;;;7.22;;
62796;SDS011;48839;48.546;-4.178;2024-01-11T11:02:15;15.73;;;8.35;;
62796;SDS011;48839;48.546;-4.178;2024-01-11T11:04:42;13.68;;;7.38;;
62796;SDS011;48839;48.546;-4.178;2024-01-11T11:07:09;15.32;;;8.48;;
62796;SDS011;48839;48.546;-4.178;2024-01-11T11:09:37;16.08;;;8.32;;
62796;SDS011;48839;48.546;-4.178;2024-01-11T11:12:03;14.75;;;8.05;;
62796;SDS011;48839;48.546;-4.178;2024-01-11T11:14:30;15.68;;;7.78;;
62796;SDS011;48839;48.546;-4.178;2024-01-11T11:16:57;13.75;;;7.15;;
62796;SDS011;48839;48.546;-4.178;2024-01-11T11:19:24;13.43;;;7.22;;
62796;SDS011;48839;48.546;-4.178;2024-01-11T11:21:50;13.43;;;7.15;;
62796;SDS011;48839;48.546;-4.178;2024-01-11T11:24:17;15.05;;;7.90;;
62796;SDS011;48839;48.546;-4.178;2024-01-11T11:26:43;14.23;;;7.45;;
62796;SDS011;48839;48.546;-4.178;2024-01-11T11:29:10;11.82;;;7.00;;
62796;SDS011;48839;48.546;-4.178;2024-01-11T11:31:42;13.25;;;7.47;;
62796;SDS011;48839;48.546;-4.178;2024-01-11T11:34:11;15.90;;;8.50;;
62796;SDS011;48839;48.546;-4.178;2024-01-11T11:36:39;14.88;;;8.10;;
62796;SDS011;48839;48.546;-4.178;2024-01-11T11:39:05;16.90;;;8.77;;
62796;SDS011;48839;48.546;-4.178;2024-01-11T11:41:32;18.20;;;8.35;;
62796;SDS011;48839;48.546;-4.178;2024-01-11T11:44:02;16.08;;;8.48;;
62796;SDS011;48839;48.546;-4.178;2024-01-11T11:46:28;11.80;;;7.22;;
62796;SDS011;48839;48.546;-4.178;2024-01-11T11:48:56;13.77;;;7.93;;
62796;SDS011;48839;48.546;-4.178;2024-01-11T11:51:23;16.05;;;8.70;;
62796;SDS011;48839;48.546;-4.178;2024-01-11T11:53:49;16.58;;;8.50;;
62796;SDS011;48839;48.546;-4.178;2024-01-11T11:56:20;15.00;;;8.18;;
62796;SDS011;48839;48.546;-4.178;2024-01-11T11:58:47;16.33;;;8.30;;
62796;SDS011;48839;48.546;-4.178;2024-01-11T12:01:14;22.30;;;8.82;;
62796;SDS011;48839;48.546;-4.178;2024-01-11T12:03:42;17.52;;;9.27;;
62796;SDS011;48839;48.546;-4.178;2024-01-11T12:06:14;15.25;;;7.85;;
62796;SDS011;48839;48.546;-4.178;2024-01-11T12:08:41;16.67;;;8.75;;
62796;SDS011;48839;48.546;-4.178;2024-01-11T12:11:08;16.85;;;7.93;;
62796;SDS011;48839;48.546;-4.178;2024-01-11T12:13:34;13.23;;;7.00;;
62796;SDS011;48839;48.546;-4.178;2024-01-11T12:16:01;14.05;;;7.70;;
62796;SDS011;48839;48.546;-4.178;2024-01-11T12:18:28;16.38;;;8.50;;
62796;SDS011;48839;48.546;-4.178;2024-01-11T12:20:54;14.80;;;7.78;;
62796;SDS011;48839;48.546;-4.178;2024-01-11T12:23:20;19.45;;;8.15;;
62796;SDS011;48839;48.546;-4.178;2024-01-11T12:25:47;17.20;;;8.02;;
62796;SDS011;48839;48.546;-4.178;2024-01-11T12:28:13;20.38;;;8.52;;
62796;SDS011;48839;48.546;-4.178;2024-01-11T12:30:39;14.82;;;7.82;;
62796;SDS011;48839;48.546;-4.178;2024-01-11T12:33:06;14.93;;;7.60;;
62796;SDS011;48839;48.546;-4.178;2024-01-11T12:35:32;18.48;;;8.50;;
62796;SDS011;48839;48.546;-4.178;2024-01-11T12:37:59;14.20;;;7.15;;
62796;SDS011;48839;48.546;-4.178;2024-01-11T12:40:26;14.70;;;8.18;;
62796;SDS011;48839;48.546;-4.178;2024-01-11T12:42:56;14.43;;;8.05;;
62796;SDS011;48839;48.546;-4.178;2024-01-11T12:45:23;20.83;;;8.85;;
62796;SDS011;48839;48.546;-4.178;2024-01-11T12:47:51;18.27;;;9.13;;
62796;SDS011;48839;48.546;-4.178;2024-01-11T12:50:19;16.48;;;7.85;;
62796;SDS011;48839;48.546;-4.178;2024-01-11T12:52:46;15.60;;;8.70;;
62796;SDS011;48839;48.546;-4.178;2024-01-11T12:55:19;16.35;;;8.43;;
62796;SDS011;48839;48.546;-4.178;2024-01-11T12:57:45;21.70;;;8.85;;
62796;SDS011;48839;48.546;-4.178;2024-01-11T13:00:12;16.65;;;8.38;;
62796;SDS011;48839;48.546;-4.178;2024-01-11T13:02:39;14.82;;;8.98;;
62796;SDS011;48839;48.546;-4.178;2024-01-11T13:05:05;16.58;;;7.63;;
62796;SDS011;48839;48.546;-4.178;2024-01-11T13:07:36;15.50;;;9.02;;
62796;SDS011;48839;48.546;-4.178;2024-01-11T13:10:02;15.82;;;8.02;;
62796;SDS011;48839;48.546;-4.178;2024-01-11T13:12:29;18.20;;;8.70;;
62796;SDS011;48839;48.546;-4.178;2024-01-11T13:14:55;15.43;;;8.27;;
62796;SDS011;48839;48.546;-4.178;2024-01-11T13:17:21;22.75;;;8.52;;
62796;SDS011;48839;48.546;-4.178;2024-01-11T13:19:48;15.13;;;8.20;;
62796;SDS011;48839;48.546;-4.178;2024-01-11T13:22:14;18.90;;;9.80;;
62796;SDS011;48839;48.546;-4.178;2024-01-11T13:24:40;17.48;;;9.30;;
62796;SDS011;48839;48.546;-4.178;2024-01-11T13:27:07;13.65;;;8.63;;
62796;SDS011;48839;48.546;-4.178;2024-01-11T13:29:33;17.40;;;8.45;;
62796;SDS011;48839;48.546;-4.178;2024-01-11T13:31:59;16.77;;;8.68;;
62796;SDS011;48839;48.546;-4.178;2024-01-11T13:34:25;16.88;;;9.05;;
62796;SDS011;48839;48.546;-4.178;2024-01-11T13:36:52;16.17;;;9.27;;
62796;SDS011;48839;48.546;-4.178;2024-01-11T13:39:18;17.60;;;7.70;;
62796;SDS011;48839;48.546;-4.178;2024-01-11T13:41:45;18.33;;;8.00;;
62796;SDS011;48839;48.546;-4.178;2024-01-11T13:44:12;15.05;;;6.63;;
62796;SDS011;48839;48.546;-4.178;2024-01-11T13:46:38;12.23;;;6.32;;
62796;SDS011;48839;48.546;-4.178;2024-01-11T13:49:05;12.80;;;6.75;;
62796;SDS011;48839;48.546;-4.178;2024-01-11T13:51:31;13.45;;;7.38;;
62796;SDS011;48839;48.546;-4.178;2024-01-11T13:53:57;13.98;;;7.65;;
62796;SDS011;48839;48.546;-4.178;2024-01-11T13:56:26;12.15;;;6.80;;
62796;SDS011;48839;48.546;-4.178;2024-01-11T13:58:52;13.25;;;7.15;;
62796;SDS011;48839;48.546;-4.178;2024-01-11T14:01:18;15.55;;;7.07;;
62796;SDS011;48839;48.546;-4.178;2024-01-11T14:03:44;18.10;;;7.70;;
62796;SDS011;48839;48.546;-4.178;2024-01-11T14:06:11;12.10;;;7.22;;
62796;SDS011;48839;48.546;-4.178;2024-01-11T14:08:37;16.73;;;8.50;;
62796;SDS011;48839;48.546;-4.178;2024-01-11T14:11:04;15.50;;;7.78;;